< Typhoon 201202 2012 Season Typhoon 201204 >
Typhoon 201203 (MAWAR)
General InformationTrack Information on Google MapsDetailed Wind InformationAccess Analytics MapList of All Images || NewsDisaster Info.WeblogTrackbackTyphoon FrontTwiphoonTyphoon Now!Typhoon ImaginationResourceGoogle EarthGE AnimationAtom FeedGeoJSON
Detalied Best Track (Time Zone = UTC)
Year Month Day Hour Lat. Long. Pressure (hPa) Wind (kt) Class Image Chart
2012 5 31 18 13.9 127.3 1002 0 2 Image Chart
2012 6 1 00 14.3 126.3 1000 0 2 Image Chart
2012 6 1 06 14.9 125.5 998 0 2 Image Chart
2012 6 1 12 15.4 125.1 998 0 2 Image Chart
2012 6 1 18 16.0 124.8 996 35 3 Image Chart
2012 6 2 00 16.6 124.3 990 45 3 Image Chart
2012 6 2 06 17.1 124.3 985 50 4 Image Chart
2012 6 2 12 17.6 124.5 980 55 4 Image Chart
2012 6 2 18 18.1 124.7 980 55 4 Image Chart
2012 6 3 00 18.6 125.0 980 55 4 Image Chart
2012 6 3 06 19.3 125.4 975 60 4 Image Chart
2012 6 3 12 20.0 125.7 970 65 5 Image Chart
2012 6 3 18 20.8 125.7 960 75 5 Image Chart
2012 6 4 00 21.5 126.2 960 75 5 Image Chart
2012 6 4 06 22.6 126.7 960 75 5 Image Chart
2012 6 4 12 23.3 127.7 960 70 5 Image Chart
2012 6 4 15 23.6 128.3 965 70 5 Image Chart
2012 6 4 18 24.6 129.0 965 70 5 Image Chart
2012 6 4 21 25.4 129.7 970 70 5 Image Chart
2012 6 5 00 26.0 130.4 970 65 5 Image Chart
2012 6 5 03 26.6 131.3 970 65 5 Image Chart
2012 6 5 06 27.4 132.3 975 60 4 Image Chart
2012 6 5 12 28.5 134.8 975 60 4 Image Chart
2012 6 5 18 29.8 137.6 980 55 4 Image Chart
2012 6 6 00 31.4 141.3 980 55 4 Image Chart
2012 6 6 06 33.3 145.5 976 0 6 Image Chart
2012 6 6 12 35.6 147.4 968 0 6 Image Chart
2012 6 6 18 37.6 149.8 964 0 6 Image Chart
2012 6 7 00 39.0 151.4 968 0 6 Image Chart
2012 6 7 06 40.1 152.4 972 0 6 Image Chart
2012 6 7 12 40.8 153.5 972 0 6 Image Chart
2012 6 7 18 41.2 155.5 972 0 6 Image Chart
2012 6 8 00 41.5 157.4 976 0 6 Image Chart
2012 6 8 06 42.0 159.9 980 0 6 Image Chart
2012 6 8 12 42.7 161.9 982 0 6 Image Chart
2012 6 8 18 43.7 164.2 984 0 6 Image Chart
2012 6 9 00 44.2 166.3 988 0 6 Image Chart
2012 6 9 06 45.8 168.2 988 0 6 Image Chart
2012 6 9 12 47.4 169.5 988 0 6 Image Chart
2012 6 9 18 48.6 170.1 988 0 6 Image Chart
2012 6 10 00 49.9 170.9 990 0 6 Image Chart
2012 6 10 06 51.5 170.0 992 0 6 Image Chart
2012 6 10 12 52.0 169.4 992 0 6 Image Chart
2012 6 10 18 52.3 168.8 996 0 6 Image Chart
2012 6 11 00 52.2 168.9 996 0 6 Image Chart
2012 6 11 06 52.9 170.5 1000 0 6 Image Chart
2012 6 11 12 53.3 171.4 1004 0 6 Image Chart
2012 6 11 18 53.5 170.7 1004 0 6 Image Chart
2012 6 12 00 54.0 169.8 1006 0 6 Image Chart
2012 6 12 06 54.2 170.0 1006 0 6 Image Chart
2012 6 12 12 53.7 168.6 1006 0 6 Image Chart
2012 6 12 18 53.9 168.2 1006 0 6 Image Chart
2012 6 13 00 55.1 168.2 1008 0 6 Image Chart
Japan Meteorological Agency Best Track Data | Correction Date : 2012-07-23
< Typhoon 201202 2012 Season Typhoon 201204 >

Help